Date,TemperatureHighF,TemperatureAvgF,TemperatureLowF,DewpointHighF,DewpointAvgF,DewpointLowF,HumidityHigh,HumidityAvg,HumidityLow,PressureMaxIn,PressureMinIn,WindSpeedMaxMPH,WindSpeedAvgMPH,GustSpeedMaxMPH,PrecipitationSumIn
2014-1-1,45.8,35.4,24.9,29.0,24.8,20.8,87,66,46,18.11,18.11,12,3,13,0.00
2014-1-2,24.9,17.0,10.3,20.9,8.5,1.2,86,70,49,18.11,18.11,20,6,20,0.00
2014-1-3,27.2,17.0,6.4,12.9,6.0,-2.6,70,62,48,18.11,18.11,16,4,16,0.00
2014-1-4,42.0,31.9,22.7,30.6,19.3,9.8,85,60,48,18.11,18.11,13,5,14,0.00
2014-1-5,34.4,18.4,1.5,31.4,16.5,0.2,100,92,84,18.11,18.11,27,8,30,0.00
2014-1-6,2.4,-0.9,-3.2,1.1,-2.2,-4.5,94,94,94,18.11,18.11,18,3,21,0.00
2014-1-7,22.6,9.3,-5.3,10.2,1.1,-6.6,94,72,46,18.11,18.11,13,3,14,0.00
2014-1-8,35.2,26.2,20.0,19.9,14.6,9.8,72,61,46,18.11,18.11,7,2,8,0.00
2014-1-9,33.5,28.7,21.8,30.9,23.7,11.3,91,82,62,18.11,18.11,9,3,10,0.00
2014-1-10,42.4,37.3,33.4,42.4,36.4,29.9,100,96,86,18.11,18.11,14,5,14,0.00
2014-1-11,45.8,40.2,35.0,42.9,32.8,26.5,100,76,49,18.11,18.11,17,3,22,0.00
2014-1-12,50.3,40.3,29.9,35.3,30.6,24.9,84,69,48,18.11,18.11,17,5,25,0.00
2014-1-13,52.6,44.8,33.7,36.0,31.6,25.8,74,60,42,18.11,18.11,15,3,15,0.00
2014-1-14,45.6,35.7,28.1,33.2,22.2,9.5,81,59,42,18.11,18.11,22,5,22,0.00
2014-1-15,29.8,25.6,21.5,15.9,9.8,6.1,63,51,45,18.11,18.11,16,4,16,0.00
2014-1-16,42.7,33.7,26.2,29.8,21.1,10.9,75,61,45,18.11,18.11,28,4,28,0.00
2014-1-17,28.3,17.8,13.6,16.6,3.7,-2.5,71,54,46,18.11,18.11,22,4,22,0.00
2014-1-18,39.5,28.1,15.7,31.9,17.8,6.7,89,66,44,18.11,18.11,18,4,22,0.00
2014-1-19,47.2,34.5,23.3,26.4,19.7,15.1,72,56,41,18.11,18.11,17,4,18,0.00
2014-1-20,47.6,40.9,35.9,30.2,26.5,20.5,70,57,44,18.11,18.11,11,3,11,0.00
2014-1-21,38.2,16.7,11.4,30.3,5.9,-2.2,100,63,47,18.11,18.11,25,6,28,0.00
2014-1-22,29.4,21.0,11.9,13.0,7.7,-3.6,70,57,45,18.11,18.11,21,5,23,0.00
2014-1-23,13.2,6.6,0.6,-2.9,-8.6,-14.1,49,49,48,18.11,18.11,23,5,23,0.00
2014-1-24,31.4,19.0,4.4,12.5,1.9,-10.6,49,47,45,18.11,18.11,14,4,20,0.00
2014-1-25,39.3,33.1,25.4,30.7,16.4,7.0,79,51,43,18.11,18.11,27,5,27,0.00
2014-1-26,54.8,40.4,24.4,32.1,20.9,7.3,62,46,42,18.11,18.11,33,5,33,0.24
2014-1-27,24.2,12.3,5.6,7.3,-3.5,-9.4,49,48,46,18.11,18.11,24,7,29,0.00
2014-1-28,19.0,10.3,4.2,1.8,-5.3,-10.8,52,49,47,18.11,18.11,11,2,12,0.00
2014-1-29,33.9,21.7,11.4,14.3,4.3,-4.1,49,47,44,18.11,18.11,11,3,11,0.00
2014-1-30,42.5,31.7,22.6,21.0,12.4,4.9,49,44,42,18.11,18.11,18,6,20,0.00
2014-1-31,37.0,32.2,28.3,28.5,20.3,14.4,85,63,43,18.11,18.11,10,2,10,0.00
2014-2-1,38.9,33.5,27.1,38.9,32.4,24.1,100,96,85,18.11,18.11,14,2,14,0.00
2014-2-2,27.2,20.9,13.2,24.7,14.7,7.0,90,77,64,18.11,18.11,0,0,0,0.00
2014-2-3,29.4,19.6,8.2,16.8,8.7,1.0,77,63,45,18.11,18.11,0,0,0,0.00
2014-2-4,28.5,25.3,21.7,22.6,18.6,13.9,84,75,65,18.11,18.11,0,0,0,0.00
2014-2-5,23.5,19.0,11.9,18.0,11.8,2.9,87,74,61,18.11,18.11,13,2,13,0.00
2014-2-6,16.3,8.9,4.2,3.5,-3.2,-9.4,69,58,47,18.11,18.11,14,4,17,0.00
2014-2-7,23.3,13.2,2.0,5.5,-2.8,-12.8,50,48,46,18.11,18.11,9,2,9,0.00
2014-2-8,32.1,25.5,18.2,21.5,15.5,3.0,73,66,50,18.11,18.11,8,2,9,0.00
2014-2-9,30.1,25.1,18.2,21.0,15.9,7.7,77,68,50,18.11,18.11,12,3,12,0.00
2014-2-10,18.8,11.2,5.6,7.9,-2.0,-7.4,65,55,47,18.11,18.11,15,4,15,0.00
2014-2-11,26.0,12.0,1.9,7.5,-4.0,-12.9,51,48,45,18.11,18.11,7,1,8,0.00
2014-2-12,38.0,21.3,7.6,17.5,5.6,-6.4,63,51,43,18.11,18.11,6,1,6,0.00
2014-2-13,48.5,32.1,15.7,27.2,17.7,6.4,69,56,43,18.11,18.11,10,2,11,0.00
2014-2-14,36.4,26.4,16.1,27.7,20.4,7.4,90,78,68,18.11,18.11,19,4,19,0.00
2014-2-15,28.7,21.5,12.8,19.8,12.5,4.4,75,68,60,18.11,18.11,13,2,14,0.00
2014-2-16,33.2,28.2,24.2,21.9,19.6,16.3,80,70,60,18.11,18.11,13,4,14,0.00
2014-2-17,41.3,33.9,24.7,35.9,25.8,16.0,91,72,53,18.11,18.11,22,4,25,0.00
2014-2-18,54.8,44.7,34.3,36.8,27.5,19.4,66,51,42,18.11,18.11,14,3,14,0.00
2014-2-19,52.4,44.5,37.7,36.7,32.7,28.4,72,63,52,18.11,18.11,11,3,13,0.00
2014-2-20,65.9,51.6,42.9,61.8,46.3,30.2,100,83,51,18.11,18.11,23,6,25,0.00
2014-2-21,53.9,45.1,33.2,31.3,23.4,13.6,47,42,41,18.11,18.11,17,4,18,0.00
2014-2-22,59.5,43.6,32.8,35.7,26.3,15.3,77,51,41,18.11,18.11,13,2,15,0.00
2014-2-23,37.5,31.7,26.5,31.2,17.1,11.3,85,55,43,18.11,18.11,15,4,15,0.00
2014-2-24,37.1,29.3,23.3,17.1,13.8,7.6,67,53,43,18.11,18.11,11,2,11,0.00
2014-2-25,31.7,26.3,17.5,17.6,13.3,2.0,81,58,47,18.11,18.11,15,5,15,0.00
2014-2-26,28.3,18.6,9.2,9.7,1.8,-6.1,52,47,45,18.11,18.11,15,5,17,0.00
2014-2-27,28.7,22.9,18.1,11.7,6.0,1.5,63,48,45,18.11,18.11,15,4,17,0.00
2014-2-28,46.3,31.5,18.6,23.9,13.1,3.0,60,47,41,18.11,18.11,13,4,13,0.00
2014-3-1,43.8,35.8,24.2,27.9,22.3,17.3,84,59,45,18.11,18.11,13,4,14,0.00
2014-3-2,24.4,13.8,4.9,20.3,7.7,-2.4,88,77,69,18.11,18.11,17,7,19,0.00
2014-3-3,24.7,12.7,2.4,8.8,0.9,-4.9,71,60,46,18.11,18.11,17,4,17,0.00
2014-3-4,40.7,26.8,14.5,19.9,12.2,5.2,71,54,43,18.11,18.11,8,2,8,0.00
2014-3-5,42.5,32.8,24.4,25.1,19.9,15.4,71,59,45,18.11,18.11,10,2,10,0.00
2014-3-6,45.8,33.8,24.9,26.1,21.4,18.1,76,61,42,0.00,40.00,8,1,8,0.00
2014-3-7,55.1,41.4,28.7,32.4,26.7,21.1,75,57,42,18.11,18.11,10,2,10,0.00
2014-3-8,40.6,37.1,34.4,33.7,30.8,28.4,88,78,64,18.11,18.11,14,4,15,0.00
2014-3-9,54.2,41.0,29.0,33.6,28.6,23.6,85,63,42,18.11,18.11,11,2,11,0.00
2014-3-10,72.6,53.8,38.0,45.5,36.8,28.9,83,55,38,18.11,18.11,12,3,12,0.00
2014-3-11,76.2,60.6,48.1,53.7,42.4,32.8,81,52,37,18.11,18.11,15,4,17,0.00
2014-3-12,47.9,37.2,33.2,42.2,27.7,16.8,100,71,42,0.00,40.00,26,8,26,0.00
2014-3-13,58.2,41.8,27.2,34.6,27.4,20.0,77,58,41,18.11,18.11,13,3,15,0.00
2014-3-14,66.7,52.7,43.8,41.1,31.7,24.6,60,45,39,18.11,18.11,19,4,19,0.00
2014-3-15,69.0,52.2,38.4,43.0,32.0,24.0,62,47,39,18.11,18.11,11,2,13,0.12
2014-3-16,50.5,34.9,26.2,34.7,18.6,9.1,65,51,44,18.11,18.11,22,6,22,0.00
2014-3-17,47.2,33.1,20.9,26.9,18.1,8.5,74,55,41,18.11,18.11,9,2,10,0.00
2014-3-18,59.5,44.6,32.8,41.1,33.9,26.7,83,67,43,18.11,18.11,20,5,21,0.04
2014-3-19,47.6,44.8,36.8,41.5,34.2,25.5,85,67,49,18.11,18.11,25,4,26,0.00
2014-3-20,65.8,48.2,32.3,40.8,30.9,23.9,73,53,40,18.11,18.11,13,3,17,0.00
2014-3-21,73.1,58.0,44.7,46.0,35.4,26.0,58,43,38,18.11,18.11,17,4,17,0.00
2014-3-22,53.3,40.7,35.2,34.7,25.7,16.4,71,56,42,18.11,18.11,17,6,17,0.00
2014-3-23,41.8,32.9,26.0,20.4,14.5,10.5,58,47,42,18.11,18.11,17,5,17,0.00
2014-3-24,40.7,33.1,25.3,26.9,17.8,9.3,74,54,43,18.11,18.11,8,1,8,0.00
2014-3-25,39.5,33.0,27.8,28.8,18.0,9.2,83,55,43,18.11,18.11,24,5,25,0.00
2014-3-26,52.4,36.2,22.0,30.0,17.9,7.8,63,48,41,18.11,18.11,16,4,16,0.00
2014-3-27,56.4,49.2,39.5,54.1,38.0,21.0,99,66,42,18.11,18.11,17,7,19,0.00
2014-3-28,54.6,45.8,39.8,53.8,36.7,32.6,97,71,56,18.11,18.11,17,4,17,0.00
2014-3-29,42.7,39.6,34.1,40.4,34.1,28.2,100,81,62,18.11,18.11,16,4,17,0.00
2014-3-30,62.9,45.6,30.3,38.2,32.4,25.2,88,63,40,18.11,18.11,10,3,13,0.00
2014-3-31,66.7,54.3,43.8,42.3,38.1,34.0,74,56,39,18.11,18.11,18,6,20,0.00
2014-4-1,60.7,52.3,45.2,44.6,36.0,24.6,82,55,41,18.11,18.11,15,3,15,0.00
2014-4-2,52.8,48.8,44.3,52.8,46.9,39.7,100,93,75,18.11,18.11,26,4,26,0.00
2014-4-3,61.3,57.5,52.8,61.3,57.5,52.8,100,100,100,18.11,18.11,16,3,17,0.00
2014-4-4,55.9,46.4,40.7,55.9,35.5,25.8,100,67,44,18.11,18.11,22,6,25,0.00
2014-4-5,56.4,45.1,35.9,33.7,29.2,23.4,70,54,42,18.11,18.11,11,2,11,0.00
2014-4-6,60.0,48.3,37.0,38.1,34.5,31.0,83,61,41,18.11,18.11,10,2,10,0.00
2014-4-7,49.4,46.9,44.2,47.2,41.5,35.7,100,82,61,18.11,18.11,13,2,13,0.00
2014-4-8,61.6,51.9,45.4,46.5,39.2,29.3,99,66,40,18.11,18.11,17,4,17,0.00
2014-4-9,66.3,52.4,40.0,41.1,34.4,28.5,73,52,39,18.11,18.11,15,3,15,0.00
2014-4-10,81.1,62.0,49.6,51.6,41.9,36.0,62,49,36,18.11,18.11,15,5,17,0.00
2014-4-11,73.1,60.6,51.0,46.0,37.4,30.5,56,42,38,18.11,18.11,8,2,9,0.00
2014-4-12,79.8,65.0,54.8,57.2,51.5,38.6,92,64,39,18.11,18.11,17,5,17,0.00
2014-4-13,72.6,65.3,59.5,63.2,56.3,52.1,100,73,56,18.11,18.11,23,5,23,0.00
2014-4-14,59.3,44.4,32.6,57.0,40.3,24.3,96,85,71,18.11,18.11,17,6,23,0.00
2014-4-15,48.7,37.7,29.9,26.0,20.7,13.4,72,51,41,18.11,18.11,16,4,17,0.00
2014-4-16,58.7,45.7,34.6,35.1,27.6,22.4,66,50,41,18.11,18.11,15,5,16,0.00
2014-4-17,67.7,53.7,42.0,41.9,35.6,29.5,67,51,39,18.11,18.11,8,2,9,0.00
2014-4-18,70.3,57.4,45.6,45.4,40.6,37.3,75,55,38,18.11,18.11,9,2,9,0.00
2014-4-19,75.1,60.8,47.9,47.8,41.7,36.9,68,51,38,18.11,18.11,9,2,10,0.00
2014-4-20,80.3,64.6,49.9,50.9,43.2,38.5,69,47,36,18.11,18.11,10,2,10,0.00
2014-4-21,73.1,65.2,59.6,62.1,52.5,43.3,96,64,47,18.11,18.11,6,1,9,0.00
2014-4-22,66.5,58.8,51.4,61.8,42.4,31.6,100,57,39,18.11,18.11,21,4,21,0.00
2014-4-23,68.6,55.3,45.2,42.7,36.0,29.1,68,49,39,18.11,18.11,10,2,10,0.00
2014-4-24,77.8,60.9,49.7,58.6,43.9,31.7,100,57,37,18.11,18.11,20,4,22,0.00
2014-4-25,74.0,60.5,48.5,58.4,46.0,38.5,100,63,38,18.11,18.11,17,3,17,0.00
2014-4-26,75.3,64.0,53.2,51.5,46.9,41.1,75,56,37,18.11,18.11,10,2,10,0.00
2014-4-27,77.6,66.5,58.7,64.4,56.0,48.6,99,70,58,18.11,18.11,17,4,17,0.00
2014-4-28,75.3,64.1,57.5,62.9,58.4,48.2,100,83,59,18.11,18.11,18,4,22,0.00
2014-4-29,69.0,57.8,52.6,55.4,44.0,38.8,94,62,39,18.11,18.11,11,3,15,0.00
2014-4-30,56.9,50.8,45.6,45.8,38.0,31.8,94,62,42,18.11,18.11,14,3,14,0.00
2014-5-1,53.5,48.5,42.5,41.3,36.7,32.5,76,64,48,18.11,18.11,10,2,11,0.00
2014-5-2,60.0,52.3,44.5,42.8,39.0,34.9,81,62,41,18.11,18.11,9,1,12,0.00
2014-5-3,73.5,61.6,52.8,46.8,41.5,37.0,65,49,38,18.11,0.00,10,1,10,0.00
2014-5-4,79.8,64.6,51.9,54.5,48.7,44.6,79,58,39,0.00,0.00,9,2,10,0.08
2014-5-5,87.5,70.0,55.7,58.1,50.7,43.7,70,52,35,0.00,0.00,9,1,9,0.00
2014-5-6,86.1,70.5,58.7,63.1,54.9,49.5,74,59,40,0.00,0.00,11,2,11,0.00
2014-5-7,82.5,72.3,64.5,63.2,56.9,51.0,73,59,43,0.00,0.00,15,3,16,0.00
2014-5-8,85.9,74.3,66.7,65.0,60.1,55.8,77,62,43,0.00,0.00,12,4,17,0.00
2014-5-9,80.0,72.4,64.1,62.6,59.3,55.3,87,65,49,0.00,0.00,10,2,10,0.00
2014-5-10,83.2,70.1,58.9,64.3,55.8,50.6,93,64,36,0.00,0.00,8,1,8,0.00
2014-5-11,84.7,73.0,62.7,69.5,62.7,55.6,86,71,52,0.00,0.00,15,3,15,0.00
2014-5-12,85.7,75.8,69.4,69.8,67.6,63.5,93,77,58,0.00,0.00,15,3,15,0.00
2014-5-13,69.5,59.9,53.0,68.3,57.8,49.1,99,93,86,0.00,0.00,10,2,11,0.00
2014-5-14,53.0,49.5,45.2,49.8,46.0,41.1,100,88,73,0.00,0.00,11,3,11,0.00
2014-5-15,64.9,51.0,45.1,49.7,45.1,37.4,100,82,43,0.00,0.00,10,2,13,0.00
2014-5-16,56.6,48.5,41.1,41.4,36.0,29.7,86,64,42,0.00,0.00,14,2,17,0.00
2014-5-17,64.3,51.4,40.0,44.0,38.0,33.1,93,63,40,0.00,0.00,7,1,7,0.00
2014-5-18,69.5,56.0,43.4,43.5,39.7,36.4,83,57,39,0.00,0.00,9,2,10,0.00
2014-5-19,76.2,63.3,50.5,60.1,50.5,40.5,74,63,53,0.00,0.00,13,3,13,0.00
2014-5-20,87.0,71.8,61.3,67.3,61.6,56.9,93,72,49,0.00,0.00,10,2,12,0.00
2014-5-21,86.8,74.2,66.5,74.4,66.6,60.2,100,79,49,0.00,0.00,10,1,10,0.00
2014-5-22,78.5,71.6,66.3,71.0,58.2,49.7,100,65,42,0.00,0.00,10,2,13,0.00
2014-5-23,82.1,70.0,62.2,53.3,50.6,46.6,72,52,36,0.00,0.00,8,1,9,0.00
2014-5-24,81.1,68.9,59.8,55.0,51.3,47.9,72,55,36,0.00,0.00,8,1,8,0.04
2014-5-25,79.1,69.4,61.6,64.8,58.9,52.0,97,70,57,0.00,0.00,8,1,8,0.00
2014-5-26,86.6,72.5,65.8,72.1,66.6,60.2,98,83,48,0.00,0.00,10,1,10,0.00
2014-5-27,83.2,72.5,64.3,70.4,64.7,59.2,100,78,56,0.00,0.00,7,1,8,0.00
2014-5-28,87.0,72.7,63.1,68.1,64.1,60.7,96,76,49,0.00,0.00,7,1,9,0.00
2014-5-29,83.8,74.5,67.2,69.9,65.9,61.9,97,76,52,0.00,0.00,8,1,8,0.00
2014-5-30,85.4,74.2,67.7,75.2,66.9,63.7,97,79,54,0.00,0.00,7,1,8,0.00
2014-5-31,85.9,74.2,67.7,72.6,68.8,65.0,100,85,56,0.00,0.00,10,1,17,0.00
2014-6-1,88.4,76.9,69.0,72.7,68.2,63.1,100,77,48,0.00,0.00,9,2,11,0.00
2014-6-2,81.6,75.5,71.0,69.9,67.0,64.2,89,75,59,0.00,0.00,11,2,15,0.00
2014-6-3,89.5,78.1,70.1,72.9,69.2,64.9,100,76,49,0.00,0.00,7,1,8,0.00
2014-6-4,82.7,74.9,68.3,76.9,69.5,64.2,100,84,64,0.00,0.00,18,2,18,0.00
2014-6-5,73.5,67.8,64.0,66.2,60.8,56.6,94,79,64,0.00,0.00,8,1,9,0.00
2014-6-6,80.3,70.8,62.3,67.5,63.1,60.9,100,78,56,0.00,0.00,5,0,6,0.00
2014-6-7,78.0,70.4,64.7,75.4,66.4,62.7,98,88,71,0.00,0.00,13,2,13,0.00
2014-6-8,75.1,68.3,62.9,65.3,60.3,58.4,96,76,60,0.00,0.00,17,2,22,0.39
2014-6-9,75.1,68.1,62.9,64.1,60.1,56.3,100,76,60,0.00,0.00,9,2,10,0.00
2014-6-10,76.6,68.5,63.2,71.5,66.0,58.4,100,93,66,0.00,0.00,10,1,10,0.00
2014-6-11,70.3,65.5,61.6,66.5,62.5,58.9,100,91,72,0.00,0.00,9,1,9,0.00
2014-6-12,80.0,68.5,60.0,66.7,62.6,58.6,100,84,52,0.00,0.00,8,1,9,0.00
2014-6-13,74.9,66.0,58.9,65.5,53.0,44.2,99,67,38,0.00,0.00,10,2,13,0.00
2014-6-14,81.6,67.1,53.7,53.2,50.2,46.1,86,58,36,0.00,0.00,11,2,11,0.00
2014-6-15,84.5,72.5,62.0,69.2,61.7,52.0,80,69,53,0.00,0.00,10,2,12,0.00
2014-6-16,91.0,78.9,70.8,74.1,68.4,63.9,96,72,48,0.00,0.00,9,2,10,0.00
2014-6-17,90.2,80.0,72.2,73.1,69.4,66.0,95,72,53,0.00,0.00,9,2,11,0.00
2014-6-18,93.1,81.0,72.4,73.4,69.6,66.6,89,70,47,0.00,0.00,9,2,10,0.00
2014-6-19,92.9,81.2,71.3,72.6,69.3,66.6,94,69,47,0.00,0.00,8,1,8,0.00
2014-6-20,89.3,77.5,70.4,72.6,69.9,64.0,100,79,55,0.00,0.00,12,1,17,0.00
2014-6-21,90.4,76.1,67.7,77.7,69.2,60.8,100,82,48,0.00,0.00,13,1,13,0.00
2014-6-22,85.0,73.3,67.0,74.6,68.4,65.6,100,86,62,0.00,0.00,9,0,17,0.00
2014-6-23,87.9,75.6,69.2,73.1,70.5,68.2,100,86,58,0.00,0.00,6,1,8,0.00
2014-6-24,84.8,75.3,69.5,73.0,67.3,57.5,100,79,49,0.00,0.00,11,2,11,0.00
2014-6-25,87.4,75.5,66.5,67.6,63.7,56.1,96,70,37,0.00,0.00,8,0,8,0.00
2014-6-26,90.2,77.1,69.0,70.6,65.9,63.4,89,70,47,0.00,0.00,8,1,8,0.00
2014-6-27,85.4,74.8,70.3,71.7,68.9,65.1,96,83,60,0.00,0.00,8,1,9,0.00
2014-6-28,87.7,77.1,70.3,73.2,69.9,67.0,100,80,57,0.00,0.00,10,2,11,0.00
2014-6-29,82.1,76.2,71.3,73.1,69.4,64.6,97,80,69,0.00,0.00,8,2,9,0.00
2014-6-30,91.1,80.4,71.9,77.0,72.8,68.0,100,79,58,0.00,0.00,12,2,13,0.00
2014-7-1,88.1,78.8,71.7,73.3,65.4,55.9,88,65,37,0.00,0.00,10,1,10,0.00
2014-7-2,76.6,69.8,63.1,63.9,55.6,48.7,87,62,40,0.00,0.00,13,3,13,0.00
2014-7-3,76.0,66.8,59.6,58.3,55.1,52.2,86,67,47,0.00,0.00,9,2,9,0.00
2014-7-4,83.9,69.1,58.9,59.9,54.4,49.8,91,62,38,0.00,0.00,6,0,8,0.00
2014-7-5,81.4,70.4,59.3,59.6,55.5,52.0,81,61,41,0.00,0.00,8,1,10,0.00
2014-7-6,89.2,76.5,66.3,71.9,65.5,58.3,82,69,54,0.00,0.00,8,1,9,0.00
2014-7-7,90.4,77.5,71.7,74.1,69.7,65.3,96,78,58,0.00,0.00,10,1,13,0.00
2014-7-8,85.0,74.2,66.5,73.9,64.7,57.5,100,75,49,0.00,0.00,13,2,16,0.00
2014-7-9,83.8,72.5,64.3,64.5,59.5,50.2,93,66,39,0.00,0.00,11,2,11,0.00
2014-7-10,84.5,71.6,62.2,60.4,56.1,51.0,81,61,38,0.00,0.00,8,1,8,0.00
2014-7-11,87.9,75.4,63.2,68.1,62.6,55.4,80,65,48,0.00,0.00,9,1,9,0.00
2014-7-12,94.4,81.1,73.5,77.4,71.0,66.7,98,73,47,0.00,0.00,6,1,7,0.00
2014-7-13,89.7,80.6,74.4,73.4,69.9,66.2,90,71,49,0.00,0.00,6,1,8,0.00
2014-7-14,90.6,74.9,67.0,76.0,68.1,54.7,100,81,49,0.00,0.00,15,1,21,0.00
2014-7-15,73.0,65.7,59.1,54.9,50.7,46.2,74,59,43,0.00,0.00,10,2,11,0.00
2014-7-16,78.4,66.3,56.9,57.0,52.6,48.0,91,64,39,0.00,0.00,8,1,10,0.00
2014-7-17,82.9,68.3,58.6,58.3,54.5,50.2,84,63,38,0.00,0.00,8,1,8,0.00
2014-7-18,83.9,70.8,63.2,57.8,54.6,49.0,79,59,36,0.00,0.00,10,1,10,0.00
2014-7-19,83.9,70.4,61.3,62.9,57.6,52.8,88,66,38,0.00,0.00,7,1,8,0.00
2014-7-20,85.7,72.8,61.6,62.8,58.9,55.8,88,64,40,0.00,0.00,6,1,6,0.00
2014-7-21,87.7,75.3,65.4,67.1,63.1,59.4,88,67,48,0.00,0.00,6,1,6,0.00
2014-7-22,89.9,77.7,67.0,70.6,66.6,63.1,92,70,51,0.00,0.00,6,1,8,0.00
2014-7-23,84.3,77.2,67.7,77.4,67.7,55.8,95,73,55,0.00,0.00,13,2,14,0.00
2014-7-24,82.0,69.3,60.2,58.4,52.9,48.9,70,57,36,0.00,0.00,9,2,9,0.00
2014-7-25,73.5,67.4,62.3,64.0,59.2,54.1,91,75,62,0.00,0.00,10,1,10,0.00
2014-7-26,94.9,77.5,65.9,75.3,68.7,62.2,96,76,48,0.00,0.00,9,1,12,0.00
2014-7-27,91.0,79.9,69.7,73.7,64.5,52.7,91,62,35,0.00,0.00,13,3,15,0.00
2014-7-28,78.2,69.4,62.3,62.7,56.2,50.5,81,64,50,0.00,0.00,12,3,12,0.00
2014-7-29,80.2,67.3,57.1,58.2,53.9,49.5,91,65,39,0.00,0.00,8,1,8,0.00
2014-7-30,82.9,70.1,59.3,60.7,56.5,51.4,88,65,38,0.00,0.00,6,0,8,0.00
2014-7-31,84.1,72.1,62.7,66.6,60.6,53.8,95,70,38,0.00,0.00,5,0,6,0.00
2014-8-1,86.5,71.8,64.1,68.1,63.0,55.1,96,76,37,0.00,0.00,8,1,8,0.00
2014-8-2,85.0,71.5,60.9,62.8,59.8,55.1,94,70,38,0.00,0.00,7,1,8,0.00
2014-8-3,87.0,73.4,62.5,65.3,59.5,52.7,93,65,37,0.00,0.00,6,1,6,0.00
2014-8-4,89.2,75.7,64.7,64.5,60.4,54.6,89,62,37,0.00,0.00,6,1,8,0.00
2014-8-5,87.2,76.2,68.3,72.9,66.4,58.0,99,73,53,0.00,0.00,7,1,8,0.00
2014-8-6,87.7,75.8,68.8,70.5,67.8,62.5,98,79,45,0.00,0.00,11,1,12,0.00
2014-8-7,71.9,70.2,68.8,71.9,70.0,68.7,100,99,95,0.00,0.00,9,2,10,0.00
2014-8-8,83.8,72.7,68.6,77.6,71.4,68.6,100,96,68,0.00,0.00,8,0,8,0.00
2014-8-9,79.3,72.1,68.5,72.7,69.7,68.0,100,93,71,0.00,0.00,7,0,9,0.00
2014-8-10,82.1,73.9,70.1,71.7,69.0,65.6,100,86,61,0.00,0.00,7,1,8,0.00
2014-8-11,83.6,74.1,68.6,72.0,66.8,59.1,100,80,50,0.00,0.00,11,2,11,0.00
2014-8-12,78.5,69.6,63.1,61.3,56.3,48.7,89,65,39,0.00,0.00,13,3,13,0.00
2014-8-13,79.8,68.2,60.0,60.1,55.5,48.5,94,67,36,0.00,0.00,11,1,11,0.00
2014-8-14,83.0,70.0,59.8,63.2,58.9,55.5,93,70,41,0.00,0.00,6,0,6,0.00
2014-8-15,82.9,72.7,63.6,70.8,65.2,61.4,94,79,58,0.00,0.00,6,1,7,0.00
2014-8-16,77.3,72.0,69.4,71.6,69.2,64.3,100,91,75,0.00,0.00,8,1,9,0.00
2014-8-17,74.4,71.8,70.3,74.2,71.7,70.3,100,100,97,0.00,0.00,6,1,8,0.00
2014-8-18,81.8,73.8,68.8,75.6,69.5,65.1,100,88,60,0.00,0.00,5,0,5,0.00
2014-8-19,85.7,75.5,68.8,76.2,70.3,64.8,100,85,61,0.00,0.00,10,1,10,0.00
2014-8-20,84.8,75.8,70.3,75.7,71.3,66.3,100,87,60,0.00,0.00,12,1,15,0.00
2014-8-21,90.8,79.1,70.6,78.5,73.7,70.6,100,85,58,0.00,0.00,8,1,8,0.00
2014-8-22,88.3,80.6,73.1,78.6,73.8,68.2,97,81,60,0.00,0.00,8,0,9,0.00
2014-8-23,94.0,82.4,74.8,77.8,73.8,67.7,100,78,46,0.00,0.00,8,1,8,0.00
2014-8-24,93.1,82.3,74.2,77.9,74.5,70.5,100,79,50,0.00,0.00,6,1,6,0.00
2014-8-25,94.6,83.2,76.0,77.9,75.7,72.5,100,80,51,0.00,0.00,5,1,6,0.00
2014-8-26,93.7,81.9,74.4,77.4,73.2,64.3,100,77,46,0.00,0.00,10,0,10,0.00
2014-8-27,91.9,77.6,71.2,73.8,69.0,63.7,94,76,49,0.00,0.00,10,1,10,0.00
2014-8-28,87.4,76.9,69.7,73.7,70.1,63.7,100,81,60,0.00,0.00,9,1,9,0.00
2014-8-29,89.5,78.1,71.2,74.1,68.9,62.7,100,76,47,0.00,0.00,10,2,10,0.00
2014-8-30,84.7,76.3,71.2,73.2,69.4,64.8,96,80,63,0.00,0.00,8,2,9,0.00
2014-8-31,87.5,76.4,70.3,73.6,70.3,67.2,100,83,58,0.00,0.00,8,1,8,0.00
2014-9-1,82.3,75.2,69.7,73.1,67.7,61.9,100,79,51,0.00,0.00,15,1,15,0.00
2014-9-2,80.9,71.8,67.9,72.9,68.5,62.9,100,90,62,0.00,0.00,11,1,11,0.00
2014-9-3,85.2,74.1,64.5,73.9,67.0,64.2,100,80,52,0.00,0.00,7,1,8,0.00
2014-9-4,90.2,76.4,69.7,76.1,69.4,61.7,98,80,59,0.00,0.00,8,1,9,0.00
2014-9-5,91.7,77.8,70.3,77.9,71.6,66.2,100,84,51,0.00,0.00,12,1,13,0.00
2014-9-6,70.3,64.6,60.5,70.3,60.3,54.0,100,87,62,0.00,0.00,10,2,10,0.00
2014-9-7,76.0,64.3,55.7,56.8,54.0,49.5,90,71,45,0.00,0.00,8,1,8,0.00
2014-9-8,79.3,66.4,56.9,59.3,55.9,51.7,96,71,44,0.00,0.00,6,1,6,0.00
2014-9-9,84.1,71.1,64.0,72.4,63.8,54.2,99,78,61,0.00,0.00,8,1,8,0.00
2014-9-10,83.9,73.9,68.3,79.4,71.6,68.2,100,93,68,0.00,0.00,15,2,17,0.00
2014-9-11,68.3,59.7,54.2,68.3,55.6,47.2,100,87,75,0.00,0.00,10,3,13,0.00
2014-9-12,58.0,54.0,50.1,50.7,48.8,46.3,94,83,73,0.00,0.00,11,2,11,0.00
2014-9-13,62.7,52.1,43.8,46.8,41.2,36.4,91,68,40,0.00,0.00,12,3,12,0.00
2014-9-14,67.6,55.4,45.2,50.1,45.2,41.5,95,71,42,0.00,0.00,6,0,6,0.00
2014-9-15,73.5,62.1,54.1,67.9,57.0,47.0,100,84,69,0.00,0.00,10,2,10,0.00
2014-9-16,64.3,58.3,53.5,58.3,52.3,49.1,96,81,61,0.00,0.00,9,1,9,0.00
2014-9-17,65.4,57.8,51.2,56.9,53.0,49.5,97,85,69,0.00,0.00,8,0,8,0.00
2014-9-18,73.3,63.5,58.6,57.4,54.5,48.3,94,74,45,0.00,0.00,9,1,9,0.00
2014-9-19,76.9,64.2,55.0,58.2,55.0,51.4,90,73,51,0.00,0.00,8,1,8,0.00
2014-9-20,80.7,69.6,60.9,70.0,63.7,57.4,94,82,66,0.00,0.00,8,1,8,0.00
2014-9-21,75.1,67.5,58.2,69.5,53.6,43.8,100,64,38,0.00,0.00,15,3,15,0.00
2014-9-22,71.0,59.5,52.8,51.7,48.6,42.8,88,69,41,0.00,0.00,7,1,8,0.00
2014-9-23,73.0,58.8,49.7,50.7,48.0,43.5,90,70,38,0.00,0.00,8,1,8,0.00
2014-9-24,74.9,61.6,52.1,52.7,48.9,44.4,87,65,38,0.00,0.00,6,1,6,0.00
2014-9-25,78.5,65.6,56.2,59.5,54.6,49.0,90,69,47,0.00,0.00,6,0,6,0.00
2014-9-26,80.5,68.7,60.7,59.3,56.0,52.6,88,66,39,0.00,0.00,6,1,6,0.00
2014-9-27,82.5,68.4,60.5,59.7,55.4,47.9,89,66,36,0.00,0.00,7,1,7,0.00
2014-9-28,81.1,67.7,57.5,61.0,54.7,49.5,91,66,36,0.00,0.00,6,1,6,0.00
2014-9-29,81.1,67.2,58.7,61.7,56.5,50.7,96,71,38,0.00,0.00,7,1,7,0.00
2014-9-30,81.1,68.7,59.1,62.1,57.0,52.0,93,69,39,0.00,0.00,6,0,6,0.00
2014-10-1,83.2,70.4,60.5,68.3,60.2,57.1,97,72,49,0.00,0.00,8,2,8,0.00
2014-10-2,74.4,68.0,64.5,71.9,67.1,62.0,100,97,81,0.00,0.00,13,1,13,0.00
2014-10-3,64.7,55.4,45.6,64.7,48.1,30.4,100,78,51,0.00,0.00,15,3,17,0.00
2014-10-4,53.9,45.9,40.6,37.1,32.2,24.6,82,60,42,0.00,0.00,17,2,17,0.00
2014-10-5,68.6,53.1,40.2,46.1,39.8,34.4,81,63,39,0.00,0.00,11,1,13,0.00
2014-10-6,67.6,58.4,52.8,51.2,47.9,37.0,90,70,40,0.00,40.00,9,1,14,0.00
2014-10-7,72.4,61.8,55.1,63.3,51.0,37.7,100,72,38,0.00,40.00,11,2,15,0.00
2014-10-8,72.2,59.9,50.1,52.5,47.1,42.4,86,65,38,0.00,40.00,6,0,8,0.00
2014-10-9,62.5,59.0,56.2,60.7,54.0,48.0,100,84,68,0.00,40.00,5,1,8,0.00
2014-10-10,56.2,52.6,48.5,54.8,51.2,46.8,100,95,75,0.00,40.00,8,1,10,0.00
2014-10-11,59.3,51.1,46.3,48.2,43.8,40.8,95,77,54,0.00,0.00,8,1,8,0.00
2014-10-12,60.5,55.6,51.2,60.5,53.2,43.9,100,92,76,0.00,40.00,5,1,7,0.00
2014-10-13,65.6,62.6,59.6,65.6,62.6,59.6,100,100,100,0.00,0.00,12,2,12,0.00
2014-10-14,59.8,56.2,52.4,59.8,55.4,50.2,100,97,85,0.00,0.00,11,2,11,0.00
2014-10-15,55.5,52.5,51.0,53.3,51.0,46.0,100,95,75,0.00,0.00,10,2,13,0.00
2014-10-16,67.0,56.5,48.1,53.2,50.0,45.2,100,81,53,0.00,0.00,6,0,6,0.00
2014-10-17,65.4,57.0,51.5,51.0,46.9,43.1,93,70,45,0.00,0.00,13,2,13,0.00
2014-10-18,58.7,51.7,46.9,44.9,42.2,39.7,83,71,54,0.00,0.00,11,2,11,0.00
2014-10-19,61.3,51.1,41.8,47.2,43.3,38.1,93,76,53,0.00,0.00,8,0,8,0.00
2014-10-20,69.0,58.2,51.7,51.9,45.8,38.2,85,65,39,0.00,0.00,12,1,12,0.00
2014-10-21,64.0,53.9,46.9,47.0,43.1,38.7,89,68,42,0.00,0.00,10,1,10,0.00
2014-10-22,61.8,50.1,42.4,44.1,40.2,37.3,84,70,46,0.00,0.00,8,1,8,0.00
2014-10-23,60.0,51.0,41.8,45.3,42.0,37.3,89,72,54,0.00,0.00,9,1,9,0.00
2014-10-24,67.7,57.7,50.1,57.7,49.6,44.7,98,76,47,0.00,0.00,9,0,9,0.00
2014-10-25,74.0,62.3,55.3,64.1,54.9,48.7,100,78,45,0.00,0.00,8,1,8,0.00
2014-10-26,72.2,61.2,50.8,59.9,45.6,34.3,91,58,38,0.00,0.00,8,1,8,0.00
2014-10-27,78.5,67.4,61.4,62.6,56.0,46.1,100,71,40,0.00,0.00,16,3,16,0.00
2014-10-28,67.6,59.8,49.4,63.8,44.4,33.1,100,59,40,0.00,0.00,17,2,17,0.00
2014-10-29,55.9,48.2,42.2,39.1,35.0,30.3,80,62,42,0.00,0.00,13,2,13,0.00
2014-10-30,58.4,47.5,38.8,47.6,39.2,33.3,88,74,46,0.00,0.00,8,1,8,0.00
2014-10-31,49.0,42.2,33.2,45.4,28.7,16.8,100,61,42,0.00,0.00,23,6,23,0.00
2014-11-1,46.9,36.5,29.0,26.9,22.4,18.1,72,57,44,0.00,0.00,13,3,13,0.00
2014-11-2,47.6,40.0,31.4,30.2,25.6,23.0,79,58,44,0.00,0.00,12,2,12,0.00
2014-11-3,65.8,53.7,42.7,40.8,32.6,24.2,58,45,40,0.00,0.00,17,4,17,0.00
2014-11-4,56.6,51.5,45.2,54.6,47.1,32.8,100,87,42,0.00,0.00,13,1,13,0.00
2014-11-5,57.7,48.0,41.8,45.5,42.1,38.8,94,81,60,0.00,0.00,8,1,8,0.00
2014-11-6,47.0,43.8,35.0,39.0,31.1,24.4,75,61,46,0.00,0.00,25,4,25,0.00
2014-11-7,51.9,41.2,31.6,32.8,29.7,26.3,84,65,42,0.00,0.00,10,2,10,0.00
2014-11-8,50.3,44.2,36.6,38.0,31.9,27.6,72,63,43,0.00,0.00,12,3,17,0.00
2014-11-9,56.4,44.9,33.4,35.8,30.7,26.1,77,59,42,0.00,0.00,12,2,12,0.00
2014-11-10,65.2,53.6,44.2,45.1,40.3,35.1,84,62,40,0.00,0.00,17,4,17,0.00
2014-11-11,56.4,39.6,30.1,44.6,29.6,19.9,85,68,60,0.00,0.00,17,5,17,0.00
2014-11-12,33.7,29.3,25.6,20.8,15.0,7.2,70,55,44,0.00,0.00,14,4,14,0.00
2014-11-13,29.0,25.7,21.5,17.0,10.4,5.7,72,52,45,0.00,40.00,11,4,16,0.00
2014-11-14,34.4,26.7,19.9,18.0,13.4,10.6,73,58,44,0.00,0.00,8,1,10,0.00
2014-11-15,40.0,31.3,24.0,26.2,18.7,13.2,78,61,43,0.00,0.00,9,1,9,0.00
2014-11-16,36.6,32.2,25.3,28.9,26.6,19.1,85,80,69,0.00,0.00,9,0,9,0.00
2014-11-17,27.4,20.9,16.1,19.7,7.9,-0.6,78,57,46,0.00,0.00,20,4,20,0.00
2014-11-18,28.7,20.8,14.6,9.8,4.6,-1.2,56,49,45,0.00,0.00,15,2,15,0.00
2014-11-19,42.0,32.7,23.5,23.2,17.2,7.8,66,53,45,0.00,0.00,17,4,17,0.00
2014-11-20,38.8,28.5,20.8,19.4,15.2,12.3,72,58,43,0.00,0.00,9,1,9,0.00
2014-11-21,40.4,32.9,24.2,33.0,18.3,11.7,78,56,43,0.00,0.00,12,3,12,0.00
2014-11-22,55.0,48.4,39.3,50.4,42.1,31.2,96,79,64,0.00,0.00,14,4,14,0.00
2014-11-23,54.4,52.3,48.8,54.4,49.7,39.6,100,91,69,0.00,0.00,10,3,10,0.00
2014-11-24,54.4,40.4,34.1,54.4,30.9,17.6,100,70,49,0.00,0.00,22,3,22,0.00
2014-11-25,39.5,33.0,28.5,22.5,19.8,17.1,73,59,45,0.00,0.00,11,2,11,0.00
2014-11-26,36.4,32.3,28.7,31.4,26.9,21.4,93,80,71,0.00,0.00,10,2,10,0.00
2014-11-27,34.3,28.8,25.3,30.7,21.3,14.5,96,74,50,0.00,0.00,13,2,13,0.00
2014-11-28,44.7,34.8,25.4,31.7,26.0,16.5,81,70,58,0.00,0.00,15,4,15,0.00
2014-11-29,58.6,48.4,38.6,53.4,42.4,30.8,99,80,65,0.00,0.00,14,5,14,0.00
2014-11-30,65.2,49.3,29.6,58.0,43.6,18.9,100,82,61,0.00,0.00,19,6,19,0.00
2014-12-1,30.5,26.7,23.1,21.3,14.4,9.4,81,60,45,0.00,0.00,17,6,17,0.00
2014-12-2,35.9,31.9,26.7,27.4,21.8,12.3,73,66,55,0.00,0.00,9,2,9,0.00
2014-12-3,45.6,37.1,31.0,28.1,25.1,20.2,79,63,44,0.00,0.00,8,1,8,0.00
2014-12-4,41.5,37.7,34.4,39.8,32.1,18.8,96,81,51,0.00,0.00,9,2,9,0.00
2014-12-5,46.1,43.4,41.1,46.1,42.7,38.9,100,97,91,0.00,0.00,17,2,17,0.00
2014-12-6,41.8,36.8,33.7,41.6,34.6,28.8,100,92,79,0.00,0.00,15,4,15,0.00
2014-12-7,42.0,36.9,31.0,32.2,30.2,26.5,86,77,66,0.00,0.00,9,1,9,0.00
2014-12-8,45.4,41.0,37.7,39.0,34.6,30.3,81,78,70,0.00,0.00,10,2,10,0.00
2014-12-9,39.1,33.9,31.6,30.2,25.7,21.5,77,72,64,0.00,0.00,14,5,14,0.00
2014-12-10,36.1,34.3,32.6,29.0,25.9,21.8,82,71,63,0.00,0.00,5,0,5,0.00
2014-12-11,39.7,33.5,31.0,25.8,23.3,21.3,74,66,51,0.00,0.00,6,0,6,0.00
2014-12-12,48.5,40.0,30.3,36.4,31.2,23.3,78,71,61,0.00,40.00,6,1,9,0.00
2014-12-13,52.6,47.8,43.6,43.3,39.9,35.9,82,74,66,0.00,0.00,6,1,8,0.00
2014-12-14,59.1,51.1,47.2,49.8,46.6,42.5,99,85,67,0.00,0.00,13,2,13,0.00
2014-12-15,50.6,48.4,44.0,50.6,46.5,35.9,100,94,73,0.00,0.00,16,4,16,0.00
2014-12-16,44.0,36.1,29.8,36.0,27.8,20.1,79,72,65,0.00,0.00,17,5,24,0.00
2014-12-17,38.6,32.4,28.9,23.6,21.5,17.9,71,64,46,0.00,0.00,13,3,13,0.00
2014-12-18,36.2,33.2,30.3,26.9,24.1,21.7,74,69,63,0.00,0.00,6,1,6,0.00
2014-12-19,38.9,34.9,30.3,27.6,25.3,23.0,76,68,59,0.00,0.00,7,1,7,0.00
2014-12-20,43.6,38.9,35.2,31.5,28.9,24.5,71,67,60,0.00,0.00,8,1,8,0.00
2014-12-21,43.6,40.7,38.0,31.2,29.7,28.1,71,65,57,0.00,0.00,10,3,10,0.00
2014-12-22,49.9,44.6,38.9,49.9,41.5,28.6,100,90,62,0.00,0.00,11,3,11,0.00
2014-12-23,49.9,45.8,40.6,49.9,41.2,36.7,100,84,69,0.00,0.00,10,1,10,0.00
2014-12-24,43.4,38.9,37.1,40.1,33.6,30.8,88,81,75,0.00,0.00,17,2,17,0.00
2014-12-25,49.0,40.9,34.3,34.9,31.7,27.7,85,70,49,0.00,0.00,13,4,13,0.00
2014-12-26,55.9,45.4,37.3,42.5,37.2,31.6,84,73,58,0.00,0.00,14,5,14,0.00
2014-12-27,48.3,41.8,33.4,48.0,38.7,25.6,99,89,73,0.00,0.00,17,3,17,0.00
2014-12-28,35.7,31.7,27.2,25.5,23.1,20.0,76,70,61,0.00,0.00,13,2,13,0.00
2014-12-29,38.0,30.3,24.2,24.8,20.0,16.8,80,66,46,0.00,0.00,9,1,9,0.00
2014-12-30,31.4,25.4,18.2,24.9,13.8,1.2,83,62,47,0.00,0.00,13,5,13,0.00
2014-12-31,28.9,21.8,14.8,10.0,4.5,-1.2,53,47,45,0.00,0.00,9,2,9,0.00
2015-1-1,39.1,32.0,25.4,28.2,15.1,7.5,74,50,43,0.00,0.00,13,3,13,0.00
2015-1-2,41.1,37.2,34.4,33.9,31.1,28.2,87,78,68,0.00,0.00,9,1,9,0.00